sensor_id;sensor_type;location;lat;lon;timestamp;P1;durP1;ratioP1;P2;durP2;ratioP2
7783;SDS011;19359;51.402;6.778;2022-09-20T00:01:42;8.13;;;5.95;;
7783;SDS011;19359;51.402;6.778;2022-09-20T00:04:09;14.57;;;5.32;;
7783;SDS011;19359;51.402;6.778;2022-09-20T00:06:38;7.90;;;5.25;;
7783;SDS011;19359;51.402;6.778;2022-09-20T00:09:04;13.75;;;7.20;;
7783;SDS011;19359;51.402;6.778;2022-09-20T00:11:32;13.25;;;5.68;;
7783;SDS011;19359;51.402;6.778;2022-09-20T00:14:00;8.90;;;5.72;;
7783;SDS011;19359;51.402;6.778;2022-09-20T00:16:30;11.45;;;5.40;;
7783;SDS011;19359;51.402;6.778;2022-09-20T00:18:59;13.48;;;6.15;;
7783;SDS011;19359;51.402;6.778;2022-09-20T00:21:28;13.63;;;5.68;;
7783;SDS011;19359;51.402;6.778;2022-09-20T00:23:57;14.73;;;5.90;;
7783;SDS011;19359;51.402;6.778;2022-09-20T00:26:25;10.95;;;5.65;;
7783;SDS011;19359;51.402;6.778;2022-09-20T00:28:52;10.35;;;5.45;;
7783;SDS011;19359;51.402;6.778;2022-09-20T00:31:19;6.88;;;4.60;;
7783;SDS011;19359;51.402;6.778;2022-09-20T00:33:46;11.15;;;4.63;;
7783;SDS011;19359;51.402;6.778;2022-09-20T00:36:30;9.73;;;4.10;;
7783;SDS011;19359;51.402;6.778;2022-09-20T00:38:59;14.80;;;4.80;;
7783;SDS011;19359;51.402;6.778;2022-09-20T00:41:28;5.95;;;4.40;;
7783;SDS011;19359;51.402;6.778;2022-09-20T00:43:56;15.43;;;4.60;;
7783;SDS011;19359;51.402;6.778;2022-09-20T00:46:25;14.80;;;4.63;;
7783;SDS011;19359;51.402;6.778;2022-09-20T00:48:55;11.68;;;3.83;;
7783;SDS011;19359;51.402;6.778;2022-09-20T00:51:27;12.57;;;3.80;;
7783;SDS011;19359;51.402;6.778;2022-09-20T00:53:57;8.98;;;4.03;;
7783;SDS011;19359;51.402;6.778;2022-09-20T00:56:31;7.38;;;3.13;;
7783;SDS011;19359;51.402;6.778;2022-09-20T00:59:02;11.70;;;4.03;;
7783;SDS011;19359;51.402;6.778;2022-09-20T01:01:34;7.03;;;3.22;;
7783;SDS011;19359;51.402;6.778;2022-09-20T01:04:02;12.13;;;3.95;;
7783;SDS011;19359;51.402;6.778;2022-09-20T01:06:29;13.73;;;4.40;;
7783;SDS011;19359;51.402;6.778;2022-09-20T01:08:57;8.75;;;3.17;;
7783;SDS011;19359;51.402;6.778;2022-09-20T01:11:27;5.80;;;2.92;;
7783;SDS011;19359;51.402;6.778;2022-09-20T01:13:55;7.13;;;3.60;;
7783;SDS011;19359;51.402;6.778;2022-09-20T01:16:22;7.30;;;2.95;;
7783;SDS011;19359;51.402;6.778;2022-09-20T01:18:51;6.43;;;3.42;;
7783;SDS011;19359;51.402;6.778;2022-09-20T01:21:18;4.32;;;2.65;;
7783;SDS011;19359;51.402;6.778;2022-09-20T01:23:48;6.80;;;3.30;;
7783;SDS011;19359;51.402;6.778;2022-09-20T01:26:38;5.00;;;3.08;;
7783;SDS011;19359;51.402;6.778;2022-09-20T01:29:24;7.15;;;2.90;;
7783;SDS011;19359;51.402;6.778;2022-09-20T01:32:06;3.10;;;2.35;;
7783;SDS011;19359;51.402;6.778;2022-09-20T01:34:37;7.65;;;3.60;;
7783;SDS011;19359;51.402;6.778;2022-09-20T01:37:12;3.95;;;2.70;;
7783;SDS011;19359;51.402;6.778;2022-09-20T01:39:44;7.47;;;2.95;;
7783;SDS011;19359;51.402;6.778;2022-09-20T01:42:17;5.00;;;2.80;;
7783;SDS011;19359;51.402;6.778;2022-09-20T01:44:47;3.72;;;2.47;;
7783;SDS011;19359;51.402;6.778;2022-09-20T01:47:21;3.08;;;2.78;;
7783;SDS011;19359;51.402;6.778;2022-09-20T01:50:00;10.23;;;3.25;;
7783;SDS011;19359;51.402;6.778;2022-09-20T01:52:38;4.32;;;2.67;;
7783;SDS011;19359;51.402;6.778;2022-09-20T01:55:38;10.48;;;3.10;;
7783;SDS011;19359;51.402;6.778;2022-09-20T01:58:31;4.45;;;2.92;;
7783;SDS011;19359;51.402;6.778;2022-09-20T02:01:47;6.43;;;3.15;;
7783;SDS011;19359;51.402;6.778;2022-09-20T02:07:36;8.32;;;2.83;;
7783;SDS011;19359;51.402;6.778;2022-09-20T02:10:34;4.95;;;2.60;;
7783;SDS011;19359;51.402;6.778;2022-09-20T02:13:16;7.68;;;2.80;;
7783;SDS011;19359;51.402;6.778;2022-09-20T02:22:02;3.67;;;3.38;;
7783;SDS011;19359;51.402;6.778;2022-09-20T02:24:43;6.75;;;2.72;;
7783;SDS011;19359;51.402;6.778;2022-09-20T02:27:17;6.57;;;2.92;;
7783;SDS011;19359;51.402;6.778;2022-09-20T02:29:57;5.18;;;2.75;;
7783;SDS011;19359;51.402;6.778;2022-09-20T02:32:37;3.03;;;2.03;;
7783;SDS011;19359;51.402;6.778;2022-09-20T02:35:21;7.30;;;2.90;;
7783;SDS011;19359;51.402;6.778;2022-09-20T02:38:05;4.57;;;2.88;;
7783;SDS011;19359;51.402;6.778;2022-09-20T02:40:42;7.13;;;2.45;;
7783;SDS011;19359;51.402;6.778;2022-09-20T02:43:27;5.82;;;2.25;;
7783;SDS011;19359;51.402;6.778;2022-09-20T02:46:02;6.35;;;3.05;;
7783;SDS011;19359;51.402;6.778;2022-09-20T02:48:37;8.98;;;2.97;;
7783;SDS011;19359;51.402;6.778;2022-09-20T02:51:13;7.07;;;2.92;;
7783;SDS011;19359;51.402;6.778;2022-09-20T02:53:46;10.48;;;2.97;;
7783;SDS011;19359;51.402;6.778;2022-09-20T02:56:24;6.18;;;2.80;;
7783;SDS011;19359;51.402;6.778;2022-09-20T02:58:58;3.95;;;2.03;;
7783;SDS011;19359;51.402;6.778;2022-09-20T03:01:39;6.95;;;2.45;;
7783;SDS011;19359;51.402;6.778;2022-09-20T03:04:20;6.15;;;2.70;;
7783;SDS011;19359;51.402;6.778;2022-09-20T03:06:54;3.90;;;2.15;;
7783;SDS011;19359;51.402;6.778;2022-09-20T03:09:28;3.67;;;2.85;;
7783;SDS011;19359;51.402;6.778;2022-09-20T03:12:02;7.80;;;3.05;;
7783;SDS011;19359;51.402;6.778;2022-09-20T03:14:36;8.65;;;2.85;;
7783;SDS011;19359;51.402;6.778;2022-09-20T03:17:12;6.68;;;2.90;;
7783;SDS011;19359;51.402;6.778;2022-09-20T03:19:51;6.03;;;3.53;;
7783;SDS011;19359;51.402;6.778;2022-09-20T03:22:33;7.22;;;2.15;;
7783;SDS011;19359;51.402;6.778;2022-09-20T03:25:21;4.43;;;2.88;;
7783;SDS011;19359;51.402;6.778;2022-09-20T03:28:02;5.75;;;3.33;;
7783;SDS011;19359;51.402;6.778;2022-09-20T03:30:40;5.57;;;2.83;;
7783;SDS011;19359;51.402;6.778;2022-09-20T03:33:18;2.75;;;2.22;;
7783;SDS011;19359;51.402;6.778;2022-09-20T03:35:55;4.65;;;2.42;;
7783;SDS011;19359;51.402;6.778;2022-09-20T03:38:45;8.70;;;3.45;;
7783;SDS011;19359;51.402;6.778;2022-09-20T03:41:30;9.30;;;2.88;;
7783;SDS011;19359;51.402;6.778;2022-09-20T03:44:09;4.45;;;2.50;;
7783;SDS011;19359;51.402;6.778;2022-09-20T03:46:50;5.05;;;2.92;;
7783;SDS011;19359;51.402;6.778;2022-09-20T03:49:36;8.23;;;2.88;;
7783;SDS011;19359;51.402;6.778;2022-09-20T03:52:30;6.18;;;2.80;;
7783;SDS011;19359;51.402;6.778;2022-09-20T03:55:23;3.08;;;2.88;;
7783;SDS011;19359;51.402;6.778;2022-09-20T03:58:25;6.53;;;2.80;;
7783;SDS011;19359;51.402;6.778;2022-09-20T04:01:11;4.35;;;2.90;;
7783;SDS011;19359;51.402;6.778;2022-09-20T04:03:59;9.73;;;2.78;;
7783;SDS011;19359;51.402;6.778;2022-09-20T04:09:38;8.80;;;2.92;;
7783;SDS011;19359;51.402;6.778;2022-09-20T04:12:41;5.57;;;2.55;;
7783;SDS011;19359;51.402;6.778;2022-09-20T04:15:21;9.48;;;2.47;;
7783;SDS011;19359;51.402;6.778;2022-09-20T04:17:56;5.65;;;3.05;;
7783;SDS011;19359;51.402;6.778;2022-09-20T04:20:30;4.07;;;2.65;;
7783;SDS011;19359;51.402;6.778;2022-09-20T04:23:07;7.25;;;2.83;;
7783;SDS011;19359;51.402;6.778;2022-09-20T04:25:43;5.03;;;2.53;;
7783;SDS011;19359;51.402;6.778;2022-09-20T04:28:14;4.82;;;2.25;;
7783;SDS011;19359;51.402;6.778;2022-09-20T04:30:46;7.65;;;2.10;;
7783;SDS011;19359;51.402;6.778;2022-09-20T04:33:17;8.23;;;2.47;;
7783;SDS011;19359;51.402;6.778;2022-09-20T04:36:02;6.20;;;3.35;;
7783;SDS011;19359;51.402;6.778;2022-09-20T04:38:55;7.43;;;2.80;;
7783;SDS011;19359;51.402;6.778;2022-09-20T04:47:49;3.90;;;2.70;;
7783;SDS011;19359;51.402;6.778;2022-09-20T04:53:51;8.43;;;3.63;;
7783;SDS011;19359;51.402;6.778;2022-09-20T04:56:40;9.85;;;3.22;;
7783;SDS011;19359;51.402;6.778;2022-09-20T04:59:23;4.97;;;3.65;;
7783;SDS011;19359;51.402;6.778;2022-09-20T05:02:20;7.85;;;3.35;;
7783;SDS011;19359;51.402;6.778;2022-09-20T05:08:18;8.25;;;4.38;;
7783;SDS011;19359;51.402;6.778;2022-09-20T05:11:24;6.47;;;4.07;;
7783;SDS011;19359;51.402;6.778;2022-09-20T05:14:22;6.80;;;4.10;;
7783;SDS011;19359;51.402;6.778;2022-09-20T05:17:21;9.55;;;4.78;;
7783;SDS011;19359;51.402;6.778;2022-09-20T05:20:03;7.35;;;3.22;;
7783;SDS011;19359;51.402;6.778;2022-09-20T05:23:12;9.52;;;4.38;;
7783;SDS011;19359;51.402;6.778;2022-09-20T05:25:57;11.50;;;4.63;;
7783;SDS011;19359;51.402;6.778;2022-09-20T05:28:33;11.27;;;4.55;;
7783;SDS011;19359;51.402;6.778;2022-09-20T05:31:10;6.45;;;3.60;;
7783;SDS011;19359;51.402;6.778;2022-09-20T05:33:42;8.73;;;4.00;;
7783;SDS011;19359;51.402;6.778;2022-09-20T05:36:16;14.20;;;4.15;;
7783;SDS011;19359;51.402;6.778;2022-09-20T05:38:55;11.90;;;4.18;;
7783;SDS011;19359;51.402;6.778;2022-09-20T05:41:33;9.88;;;5.03;;
7783;SDS011;19359;51.402;6.778;2022-09-20T05:44:07;9.25;;;4.00;;
7783;SDS011;19359;51.402;6.778;2022-09-20T05:46:43;9.30;;;3.83;;
7783;SDS011;19359;51.402;6.778;2022-09-20T05:49:23;11.10;;;4.38;;
7783;SDS011;19359;51.402;6.778;2022-09-20T05:52:19;9.70;;;4.15;;
7783;SDS011;19359;51.402;6.778;2022-09-20T05:55:00;9.30;;;4.68;;
7783;SDS011;19359;51.402;6.778;2022-09-20T05:58:02;13.50;;;3.95;;
7783;SDS011;19359;51.402;6.778;2022-09-20T06:00:48;11.43;;;4.70;;
7783;SDS011;19359;51.402;6.778;2022-09-20T06:03:20;14.63;;;4.95;;
7783;SDS011;19359;51.402;6.778;2022-09-20T06:05:57;10.35;;;3.92;;
7783;SDS011;19359;51.402;6.778;2022-09-20T06:08:35;6.13;;;3.58;;
7783;SDS011;19359;51.402;6.778;2022-09-20T06:11:20;9.98;;;3.75;;
7783;SDS011;19359;51.402;6.778;2022-09-20T06:14:09;10.48;;;4.22;;
7783;SDS011;19359;51.402;6.778;2022-09-20T06:16:47;14.52;;;4.88;;
7783;SDS011;19359;51.402;6.778;2022-09-20T06:19:21;5.63;;;4.00;;
7783;SDS011;19359;51.402;6.778;2022-09-20T06:21:57;8.32;;;3.85;;
7783;SDS011;19359;51.402;6.778;2022-09-20T06:24:31;7.70;;;3.70;;
7783;SDS011;19359;51.402;6.778;2022-09-20T06:27:05;5.90;;;3.72;;
7783;SDS011;19359;51.402;6.778;2022-09-20T06:29:38;8.30;;;3.72;;
7783;SDS011;19359;51.402;6.778;2022-09-20T06:32:09;8.50;;;4.40;;
7783;SDS011;19359;51.402;6.778;2022-09-20T06:34:36;16.20;;;4.10;;
7783;SDS011;19359;51.402;6.778;2022-09-20T06:37:06;5.75;;;3.55;;
7783;SDS011;19359;51.402;6.778;2022-09-20T06:39:59;12.82;;;3.80;;
7783;SDS011;19359;51.402;6.778;2022-09-20T06:42:50;6.68;;;4.15;;
7783;SDS011;19359;51.402;6.778;2022-09-20T06:45:18;8.52;;;4.20;;
7783;SDS011;19359;51.402;6.778;2022-09-20T06:47:45;12.18;;;4.13;;
7783;SDS011;19359;51.402;6.778;2022-09-20T06:50:13;8.98;;;3.70;;
7783;SDS011;19359;51.402;6.778;2022-09-20T06:52:41;7.72;;;4.20;;
7783;SDS011;19359;51.402;6.778;2022-09-20T06:55:10;9.25;;;3.65;;
7783;SDS011;19359;51.402;6.778;2022-09-20T06:57:45;6.35;;;3.78;;
7783;SDS011;19359;51.402;6.778;2022-09-20T07:00:14;7.68;;;4.20;;
7783;SDS011;19359;51.402;6.778;2022-09-20T07:02:41;9.25;;;4.03;;
7783;SDS011;19359;51.402;6.778;2022-09-20T07:05:10;5.13;;;3.67;;
7783;SDS011;19359;51.402;6.778;2022-09-20T07:07:40;11.90;;;3.97;;
7783;SDS011;19359;51.402;6.778;2022-09-20T07:10:08;8.80;;;5.15;;
7783;SDS011;19359;51.402;6.778;2022-09-20T07:12:35;8.57;;;4.70;;
7783;SDS011;19359;51.402;6.778;2022-09-20T07:15:02;5.95;;;3.92;;
7783;SDS011;19359;51.402;6.778;2022-09-20T07:17:31;8.73;;;4.00;;
7783;SDS011;19359;51.402;6.778;2022-09-20T07:19:58;10.30;;;3.70;;
7783;SDS011;19359;51.402;6.778;2022-09-20T07:22:25;6.10;;;3.20;;
7783;SDS011;19359;51.402;6.778;2022-09-20T07:24:52;5.85;;;3.30;;
7783;SDS011;19359;51.402;6.778;2022-09-20T07:27:19;13.05;;;3.88;;
7783;SDS011;19359;51.402;6.778;2022-09-20T07:29:46;7.03;;;3.50;;
7783;SDS011;19359;51.402;6.778;2022-09-20T07:32:12;8.52;;;4.00;;
7783;SDS011;19359;51.402;6.778;2022-09-20T07:34:42;5.75;;;3.70;;
7783;SDS011;19359;51.402;6.778;2022-09-20T07:37:09;6.07;;;4.03;;
7783;SDS011;19359;51.402;6.778;2022-09-20T07:39:36;16.15;;;4.85;;
7783;SDS011;19359;51.402;6.778;2022-09-20T07:42:03;17.83;;;5.47;;
7783;SDS011;19359;51.402;6.778;2022-09-20T07:44:31;16.33;;;4.95;;
7783;SDS011;19359;51.402;6.778;2022-09-20T07:46:58;13.85;;;4.75;;
7783;SDS011;19359;51.402;6.778;2022-09-20T07:49:25;10.82;;;4.88;;
7783;SDS011;19359;51.402;6.778;2022-09-20T07:51:55;12.52;;;4.55;;
7783;SDS011;19359;51.402;6.778;2022-09-20T07:54:22;11.70;;;4.50;;
7783;SDS011;19359;51.402;6.778;2022-09-20T07:56:51;15.77;;;3.45;;
7783;SDS011;19359;51.402;6.778;2022-09-20T07:59:18;9.98;;;3.03;;
7783;SDS011;19359;51.402;6.778;2022-09-20T08:01:44;12.77;;;3.85;;
7783;SDS011;19359;51.402;6.778;2022-09-20T08:04:11;8.77;;;3.40;;
7783;SDS011;19359;51.402;6.778;2022-09-20T08:06:39;5.78;;;2.85;;
7783;SDS011;19359;51.402;6.778;2022-09-20T08:09:09;6.20;;;2.28;;
7783;SDS011;19359;51.402;6.778;2022-09-20T08:11:36;4.03;;;2.60;;
7783;SDS011;19359;51.402;6.778;2022-09-20T08:14:04;4.10;;;2.05;;
7783;SDS011;19359;51.402;6.778;2022-09-20T08:16:36;6.93;;;1.90;;
7783;SDS011;19359;51.402;6.778;2022-09-20T08:19:03;5.60;;;2.03;;
7783;SDS011;19359;51.402;6.778;2022-09-20T08:21:30;5.72;;;1.80;;
7783;SDS011;19359;51.402;6.778;2022-09-20T08:23:59;4.97;;;2.20;;
7783;SDS011;19359;51.402;6.778;2022-09-20T08:26:29;4.60;;;1.90;;
7783;SDS011;19359;51.402;6.778;2022-09-20T08:28:57;5.35;;;1.65;;
7783;SDS011;19359;51.402;6.778;2022-09-20T08:31:25;4.60;;;1.80;;
7783;SDS011;19359;51.402;6.778;2022-09-20T08:33:55;10.35;;;1.60;;
7783;SDS011;19359;51.402;6.778;2022-09-20T08:36:23;4.03;;;1.20;;
7783;SDS011;19359;51.402;6.778;2022-09-20T08:38:51;7.63;;;1.75;;
7783;SDS011;19359;51.402;6.778;2022-09-20T08:41:19;4.07;;;1.75;;
7783;SDS011;19359;51.402;6.778;2022-09-20T08:43:52;8.35;;;1.63;;
7783;SDS011;19359;51.402;6.778;2022-09-20T08:46:22;4.07;;;1.25;;
7783;SDS011;19359;51.402;6.778;2022-09-20T08:48:54;8.40;;;1.60;;
7783;SDS011;19359;51.402;6.778;2022-09-20T08:51:22;6.38;;;1.58;;
7783;SDS011;19359;51.402;6.778;2022-09-20T08:53:54;8.35;;;2.15;;
7783;SDS011;19359;51.402;6.778;2022-09-20T08:56:24;2.88;;;1.23;;
7783;SDS011;19359;51.402;6.778;2022-09-20T08:58:55;4.50;;;1.10;;
7783;SDS011;19359;51.402;6.778;2022-09-20T09:01:25;8.27;;;1.42;;
7783;SDS011;19359;51.402;6.778;2022-09-20T09:03:56;3.90;;;1.65;;
7783;SDS011;19359;51.402;6.778;2022-09-20T09:06:27;2.78;;;1.50;;
7783;SDS011;19359;51.402;6.778;2022-09-20T09:08:54;5.57;;;1.45;;
7783;SDS011;19359;51.402;6.778;2022-09-20T09:11:24;4.05;;;1.15;;
7783;SDS011;19359;51.402;6.778;2022-09-20T09:13:52;5.22;;;1.13;;
7783;SDS011;19359;51.402;6.778;2022-09-20T09:16:26;9.43;;;1.38;;
7783;SDS011;19359;51.402;6.778;2022-09-20T09:18:55;4.35;;;1.23;;
7783;SDS011;19359;51.402;6.778;2022-09-20T09:21:22;6.22;;;1.05;;
7783;SDS011;19359;51.402;6.778;2022-09-20T09:23:52;3.10;;;1.05;;
7783;SDS011;19359;51.402;6.778;2022-09-20T09:26:25;2.88;;;0.93;;
7783;SDS011;19359;51.402;6.778;2022-09-20T09:31:46;8.38;;;1.02;;
7783;SDS011;19359;51.402;6.778;2022-09-20T09:34:22;6.63;;;1.58;;
7783;SDS011;19359;51.402;6.778;2022-09-20T09:36:50;1.70;;;0.73;;
7783;SDS011;19359;51.402;6.778;2022-09-20T09:39:21;4.43;;;1.05;;
7783;SDS011;19359;51.402;6.778;2022-09-20T09:41:50;4.18;;;0.93;;
7783;SDS011;19359;51.402;6.778;2022-09-20T09:44:19;4.60;;;0.82;;
7783;SDS011;19359;51.402;6.778;2022-09-20T09:46:47;14.30;;;0.90;;
7783;SDS011;19359;51.402;6.778;2022-09-20T09:49:17;6.13;;;0.85;;
7783;SDS011;19359;51.402;6.778;2022-09-20T09:52:05;7.25;;;1.25;;
7783;SDS011;19359;51.402;6.778;2022-09-20T09:54:37;2.72;;;1.10;;
7783;SDS011;19359;51.402;6.778;2022-09-20T09:57:09;8.68;;;1.17;;
7783;SDS011;19359;51.402;6.778;2022-09-20T09:59:58;3.53;;;0.82;;
7783;SDS011;19359;51.402;6.778;2022-09-20T10:02:48;0.90;;;0.90;;
7783;SDS011;19359;51.402;6.778;2022-09-20T10:05:29;4.07;;;0.70;;
7783;SDS011;19359;51.402;6.778;2022-09-20T10:08:05;4.75;;;0.80;;
7783;SDS011;19359;51.402;6.778;2022-09-20T10:10:42;3.20;;;0.65;;
7783;SDS011;19359;51.402;6.778;2022-09-20T10:13:25;4.55;;;0.40;;
7783;SDS011;19359;51.402;6.778;2022-09-20T10:15:59;3.20;;;0.52;;
7783;SDS011;19359;51.402;6.778;2022-09-20T10:18:33;4.97;;;0.70;;
7783;SDS011;19359;51.402;6.778;2022-09-20T10:21:11;1.67;;;0.88;;
7783;SDS011;19359;51.402;6.778;2022-09-20T10:23:51;5.72;;;0.80;;
7783;SDS011;19359;51.402;6.778;2022-09-20T10:29:35;4.22;;;1.13;;
7783;SDS011;19359;51.402;6.778;2022-09-20T10:32:16;6.38;;;1.05;;
7783;SDS011;19359;51.402;6.778;2022-09-20T10:34:55;6.80;;;1.17;;
7783;SDS011;19359;51.402;6.778;2022-09-20T10:37:36;7.25;;;0.80;;
7783;SDS011;19359;51.402;6.778;2022-09-20T10:40:15;3.55;;;0.70;;
7783;SDS011;19359;51.402;6.778;2022-09-20T10:43:14;4.78;;;0.77;;
7783;SDS011;19359;51.402;6.778;2022-09-20T10:45:51;7.85;;;0.82;;
7783;SDS011;19359;51.402;6.778;2022-09-20T10:48:31;2.58;;;0.50;;
7783;SDS011;19359;51.402;6.778;2022-09-20T10:51:09;2.28;;;0.82;;
7783;SDS011;19359;51.402;6.778;2022-09-20T10:53:42;4.82;;;0.70;;
7783;SDS011;19359;51.402;6.778;2022-09-20T10:56:23;4.15;;;0.75;;
7783;SDS011;19359;51.402;6.778;2022-09-20T10:59:09;2.95;;;1.15;;
7783;SDS011;19359;51.402;6.778;2022-09-20T11:01:50;1.95;;;0.60;;
7783;SDS011;19359;51.402;6.778;2022-09-20T11:04:36;5.30;;;0.82;;
7783;SDS011;19359;51.402;6.778;2022-09-20T11:07:18;3.95;;;0.45;;
7783;SDS011;19359;51.402;6.778;2022-09-20T11:09:54;2.80;;;0.52;;
7783;SDS011;19359;51.402;6.778;2022-09-20T11:12:27;0.75;;;0.40;;
7783;SDS011;19359;51.402;6.778;2022-09-20T11:15:03;4.97;;;0.50;;
7783;SDS011;19359;51.402;6.778;2022-09-20T11:17:40;5.95;;;0.80;;
7783;SDS011;19359;51.402;6.778;2022-09-20T11:20:14;1.35;;;0.50;;
7783;SDS011;19359;51.402;6.778;2022-09-20T11:22:45;1.83;;;0.40;;
7783;SDS011;19359;51.402;6.778;2022-09-20T11:25:17;3.03;;;0.40;;
7783;SDS011;19359;51.402;6.778;2022-09-20T11:27:50;5.60;;;0.40;;
7783;SDS011;19359;51.402;6.778;2022-09-20T11:30:20;2.97;;;0.50;;
7783;SDS011;19359;51.402;6.778;2022-09-20T11:32:49;1.08;;;0.40;;
7783;SDS011;19359;51.402;6.778;2022-09-20T11:35:26;1.90;;;0.52;;
7783;SDS011;19359;51.402;6.778;2022-09-20T11:38:03;3.67;;;1.45;;
7783;SDS011;19359;51.402;6.778;2022-09-20T11:40:37;1.75;;;0.82;;
7783;SDS011;19359;51.402;6.778;2022-09-20T11:43:08;0.80;;;0.43;;
7783;SDS011;19359;51.402;6.778;2022-09-20T11:45:36;1.88;;;0.52;;
7783;SDS011;19359;51.402;6.778;2022-09-20T11:48:07;3.42;;;0.20;;
7783;SDS011;19359;51.402;6.778;2022-09-20T11:50:54;5.22;;;0.40;;
7783;SDS011;19359;51.402;6.778;2022-09-20T11:53:40;1.02;;;0.40;;
7783;SDS011;19359;51.402;6.778;2022-09-20T11:56:16;3.85;;;0.30;;
7783;SDS011;19359;51.402;6.778;2022-09-20T11:58:46;3.20;;;0.63;;
7783;SDS011;19359;51.402;6.778;2022-09-20T12:01:15;3.33;;;0.43;;
7783;SDS011;19359;51.402;6.778;2022-09-20T12:03:50;6.43;;;0.70;;
7783;SDS011;19359;51.402;6.778;2022-09-20T12:06:24;0.82;;;0.82;;
7783;SDS011;19359;51.402;6.778;2022-09-20T12:08:53;1.23;;;0.40;;
7783;SDS011;19359;51.402;6.778;2022-09-20T12:11:26;4.35;;;0.68;;
7783;SDS011;19359;51.402;6.778;2022-09-20T12:13:59;5.15;;;0.77;;
7783;SDS011;19359;51.402;6.778;2022-09-20T12:16:36;1.48;;;0.40;;
7783;SDS011;19359;51.402;6.778;2022-09-20T12:19:05;3.13;;;0.50;;
7783;SDS011;19359;51.402;6.778;2022-09-20T12:24:43;0.35;;;0.30;;
7783;SDS011;19359;51.402;6.778;2022-09-20T12:27:19;4.57;;;1.17;;
7783;SDS011;19359;51.402;6.778;2022-09-20T12:30:14;1.95;;;1.05;;
7783;SDS011;19359;51.402;6.778;2022-09-20T12:32:44;0.32;;;0.32;;
7783;SDS011;19359;51.402;6.778;2022-09-20T12:41:25;2.17;;;0.55;;
7783;SDS011;19359;51.402;6.778;2022-09-20T12:44:00;3.72;;;0.60;;
7783;SDS011;19359;51.402;6.778;2022-09-20T12:46:31;6.20;;;0.73;;
7783;SDS011;19359;51.402;6.778;2022-09-20T12:49:19;0.57;;;0.50;;
7783;SDS011;19359;51.402;6.778;2022-09-20T12:55:29;0.55;;;0.30;;
7783;SDS011;19359;51.402;6.778;2022-09-20T12:58:05;4.50;;;0.45;;
7783;SDS011;19359;51.402;6.778;2022-09-20T13:00:44;1.02;;;0.30;;
7783;SDS011;19359;51.402;6.778;2022-09-20T13:03:22;2.00;;;0.77;;
7783;SDS011;19359;51.402;6.778;2022-09-20T13:08:51;0.60;;;0.40;;
7783;SDS011;19359;51.402;6.778;2022-09-20T13:11:26;0.57;;;0.22;;
7783;SDS011;19359;51.402;6.778;2022-09-20T13:13:55;1.42;;;0.30;;
7783;SDS011;19359;51.402;6.778;2022-09-20T13:16:25;0.47;;;0.30;;
7783;SDS011;19359;51.402;6.778;2022-09-20T13:18:57;3.20;;;0.50;;
7783;SDS011;19359;51.402;6.778;2022-09-20T13:21:29;2.13;;;0.32;;
7783;SDS011;19359;51.402;6.778;2022-09-20T13:23:57;2.25;;;0.32;;
7783;SDS011;19359;51.402;6.778;2022-09-20T13:26:27;2.15;;;0.40;;
7783;SDS011;19359;51.402;6.778;2022-09-20T13:28:56;0.30;;;0.20;;
7783;SDS011;19359;51.402;6.778;2022-09-20T13:31:28;2.03;;;0.47;;
7783;SDS011;19359;51.402;6.778;2022-09-20T13:36:46;1.73;;;0.38;;
7783;SDS011;19359;51.402;6.778;2022-09-20T13:39:30;1.13;;;0.63;;
7783;SDS011;19359;51.402;6.778;2022-09-20T13:42:03;1.30;;;0.35;;
7783;SDS011;19359;51.402;6.778;2022-09-20T13:44:33;2.08;;;0.68;;
7783;SDS011;19359;51.402;6.778;2022-09-20T13:47:01;2.45;;;0.40;;
7783;SDS011;19359;51.402;6.778;2022-09-20T13:49:46;1.33;;;0.30;;
7783;SDS011;19359;51.402;6.778;2022-09-20T13:52:19;2.47;;;0.50;;
7783;SDS011;19359;51.402;6.778;2022-09-20T13:54:48;1.85;;;0.40;;
7783;SDS011;19359;51.402;6.778;2022-09-20T13:57:18;1.58;;;0.43;;
7783;SDS011;19359;51.402;6.778;2022-09-20T13:59:47;1.33;;;0.28;;
7783;SDS011;19359;51.402;6.778;2022-09-20T14:02:17;2.65;;;0.45;;
7783;SDS011;19359;51.402;6.778;2022-09-20T14:04:47;3.10;;;0.47;;
7783;SDS011;19359;51.402;6.778;2022-09-20T14:07:16;1.38;;;0.40;;
7783;SDS011;19359;51.402;6.778;2022-09-20T14:09:42;5.82;;;0.40;;
7783;SDS011;19359;51.402;6.778;2022-09-20T14:12:10;1.23;;;0.40;;
7783;SDS011;19359;51.402;6.778;2022-09-20T14:14:40;0.20;;;0.20;;
7783;SDS011;19359;51.402;6.778;2022-09-20T14:17:07;2.33;;;0.20;;
7783;SDS011;19359;51.402;6.778;2022-09-20T14:19:35;3.92;;;0.40;;
7783;SDS011;19359;51.402;6.778;2022-09-20T14:22:06;2.33;;;0.38;;
7783;SDS011;19359;51.402;6.778;2022-09-20T14:24:39;2.60;;;1.45;;
7783;SDS011;19359;51.402;6.778;2022-09-20T14:27:15;1.75;;;1.38;;
7783;SDS011;19359;51.402;6.778;2022-09-20T14:29:46;7.78;;;0.52;;
7783;SDS011;19359;51.402;6.778;2022-09-20T14:32:18;1.45;;;0.77;;
7783;SDS011;19359;51.402;6.778;2022-09-20T14:34:55;2.75;;;0.60;;
7783;SDS011;19359;51.402;6.778;2022-09-20T14:37:26;0.95;;;0.70;;
7783;SDS011;19359;51.402;6.778;2022-09-20T14:39:55;0.40;;;0.40;;
7783;SDS011;19359;51.402;6.778;2022-09-20T14:42:25;3.60;;;0.50;;
7783;SDS011;19359;51.402;6.778;2022-09-20T14:44:56;1.17;;;0.32;;
7783;SDS011;19359;51.402;6.778;2022-09-20T14:47:24;4.25;;;0.43;;
7783;SDS011;19359;51.402;6.778;2022-09-20T14:49:52;1.05;;;0.30;;
7783;SDS011;19359;51.402;6.778;2022-09-20T14:52:35;4.00;;;0.73;;
7783;SDS011;19359;51.402;6.778;2022-09-20T14:55:16;8.55;;;0.52;;
7783;SDS011;19359;51.402;6.778;2022-09-20T14:57:46;3.00;;;0.40;;
7783;SDS011;19359;51.402;6.778;2022-09-20T15:00:16;0.80;;;0.55;;
7783;SDS011;19359;51.402;6.778;2022-09-20T15:02:44;3.72;;;0.50;;
7783;SDS011;19359;51.402;6.778;2022-09-20T15:05:16;5.47;;;0.82;;
7783;SDS011;19359;51.402;6.778;2022-09-20T15:07:45;3.78;;;0.60;;
7783;SDS011;19359;51.402;6.778;2022-09-20T15:10:12;5.18;;;0.60;;
7783;SDS011;19359;51.402;6.778;2022-09-20T15:12:39;0.82;;;0.50;;
7783;SDS011;19359;51.402;6.778;2022-09-20T15:15:10;6.22;;;0.52;;
7783;SDS011;19359;51.402;6.778;2022-09-20T15:17:40;1.48;;;0.65;;
7783;SDS011;19359;51.402;6.778;2022-09-20T15:20:11;6.13;;;1.50;;
7783;SDS011;19359;51.402;6.778;2022-09-20T15:22:40;1.55;;;0.50;;
7783;SDS011;19359;51.402;6.778;2022-09-20T15:25:10;2.03;;;0.60;;
7783;SDS011;19359;51.402;6.778;2022-09-20T15:27:39;3.13;;;0.60;;
7783;SDS011;19359;51.402;6.778;2022-09-20T15:30:08;2.90;;;0.47;;
7783;SDS011;19359;51.402;6.778;2022-09-20T15:32:36;2.40;;;0.65;;
7783;SDS011;19359;51.402;6.778;2022-09-20T15:35:05;5.70;;;0.50;;
7783;SDS011;19359;51.402;6.778;2022-09-20T15:37:32;0.55;;;0.32;;
7783;SDS011;19359;51.402;6.778;2022-09-20T15:39:59;2.17;;;0.40;;
7783;SDS011;19359;51.402;6.778;2022-09-20T15:42:27;3.03;;;0.32;;
7783;SDS011;19359;51.402;6.778;2022-09-20T15:44:53;3.83;;;0.77;;
7783;SDS011;19359;51.402;6.778;2022-09-20T15:47:20;2.13;;;0.52;;
7783;SDS011;19359;51.402;6.778;2022-09-20T15:49:47;2.35;;;0.40;;
7783;SDS011;19359;51.402;6.778;2022-09-20T15:52:15;2.67;;;0.77;;
7783;SDS011;19359;51.402;6.778;2022-09-20T15:54:49;1.90;;;0.93;;
7783;SDS011;19359;51.402;6.778;2022-09-20T15:57:15;1.60;;;0.70;;
7783;SDS011;19359;51.402;6.778;2022-09-20T15:59:42;4.72;;;0.50;;
7783;SDS011;19359;51.402;6.778;2022-09-20T16:02:09;3.40;;;1.00;;
7783;SDS011;19359;51.402;6.778;2022-09-20T16:04:36;1.75;;;0.60;;
7783;SDS011;19359;51.402;6.778;2022-09-20T16:07:03;1.42;;;0.70;;
7783;SDS011;19359;51.402;6.778;2022-09-20T16:09:32;1.83;;;0.57;;
7783;SDS011;19359;51.402;6.778;2022-09-20T16:12:00;4.43;;;0.63;;
7783;SDS011;19359;51.402;6.778;2022-09-20T16:14:28;2.75;;;0.50;;
7783;SDS011;19359;51.402;6.778;2022-09-20T16:16:55;6.32;;;0.57;;
7783;SDS011;19359;51.402;6.778;2022-09-20T16:19:22;7.15;;;0.85;;
7783;SDS011;19359;51.402;6.778;2022-09-20T16:21:50;1.90;;;0.60;;
7783;SDS011;19359;51.402;6.778;2022-09-20T16:24:20;2.58;;;0.90;;
7783;SDS011;19359;51.402;6.778;2022-09-20T16:26:51;1.63;;;0.52;;
7783;SDS011;19359;51.402;6.778;2022-09-20T16:29:18;4.38;;;0.70;;
7783;SDS011;19359;51.402;6.778;2022-09-20T16:31:47;2.55;;;0.60;;
7783;SDS011;19359;51.402;6.778;2022-09-20T16:34:15;9.77;;;1.25;;